sensor_id;sensor_type;location;lat;lon;timestamp;P1;durP1;ratioP1;P2;durP2;ratioP2
20283;SDS011;10301;50.832;4.080;2022-08-18T00:01:24;78.88;;;52.85;;
20283;SDS011;10301;50.832;4.080;2022-08-18T00:03:50;92.45;;;58.30;;
20283;SDS011;10301;50.832;4.080;2022-08-18T00:06:16;91.60;;;58.10;;
20283;SDS011;10301;50.832;4.080;2022-08-18T00:08:42;92.90;;;58.03;;
20283;SDS011;10301;50.832;4.080;2022-08-18T00:11:08;89.47;;;57.85;;
20283;SDS011;10301;50.832;4.080;2022-08-18T00:13:34;94.55;;;56.50;;
20283;SDS011;10301;50.832;4.080;2022-08-18T00:16:00;92.53;;;56.92;;
20283;SDS011;10301;50.832;4.080;2022-08-18T00:18:26;96.90;;;61.95;;
20283;SDS011;10301;50.832;4.080;2022-08-18T00:20:52;108.35;;;61.40;;
20283;SDS011;10301;50.832;4.080;2022-08-18T00:23:17;182.90;;;65.07;;
20283;SDS011;10301;50.832;4.080;2022-08-18T00:25:43;102.57;;;65.18;;
20283;SDS011;10301;50.832;4.080;2022-08-18T00:28:09;102.57;;;62.83;;
20283;SDS011;10301;50.832;4.080;2022-08-18T00:30:36;118.80;;;63.80;;
20283;SDS011;10301;50.832;4.080;2022-08-18T00:33:02;111.50;;;65.47;;
20283;SDS011;10301;50.832;4.080;2022-08-18T00:35:32;114.75;;;67.07;;
20283;SDS011;10301;50.832;4.080;2022-08-18T00:38:01;109.53;;;67.65;;
20283;SDS011;10301;50.832;4.080;2022-08-18T00:40:30;105.50;;;63.47;;
20283;SDS011;10301;50.832;4.080;2022-08-18T00:43:02;109.43;;;66.15;;
20283;SDS011;10301;50.832;4.080;2022-08-18T00:45:31;114.07;;;68.72;;
20283;SDS011;10301;50.832;4.080;2022-08-18T00:48:00;118.95;;;68.22;;
20283;SDS011;10301;50.832;4.080;2022-08-18T00:50:30;137.32;;;67.13;;
20283;SDS011;10301;50.832;4.080;2022-08-18T00:53:12;134.35;;;66.47;;
20283;SDS011;10301;50.832;4.080;2022-08-18T00:55:43;113.90;;;67.07;;
20283;SDS011;10301;50.832;4.080;2022-08-18T00:58:13;122.47;;;70.13;;
20283;SDS011;10301;50.832;4.080;2022-08-18T01:00:43;123.72;;;69.25;;
20283;SDS011;10301;50.832;4.080;2022-08-18T01:03:11;130.73;;;71.53;;
20283;SDS011;10301;50.832;4.080;2022-08-18T01:05:44;116.43;;;65.75;;
20283;SDS011;10301;50.832;4.080;2022-08-18T01:08:15;121.80;;;67.28;;
20283;SDS011;10301;50.832;4.080;2022-08-18T01:10:42;126.18;;;67.38;;
20283;SDS011;10301;50.832;4.080;2022-08-18T01:13:08;126.32;;;66.05;;
20283;SDS011;10301;50.832;4.080;2022-08-18T01:15:34;129.40;;;68.03;;
20283;SDS011;10301;50.832;4.080;2022-08-18T01:18:02;120.00;;;68.57;;
20283;SDS011;10301;50.832;4.080;2022-08-18T01:23:54;139.40;;;70.03;;
20283;SDS011;10301;50.832;4.080;2022-08-18T01:26:22;128.68;;;70.07;;
20283;SDS011;10301;50.832;4.080;2022-08-18T01:28:49;139.65;;;72.20;;
20283;SDS011;10301;50.832;4.080;2022-08-18T01:31:30;139.98;;;72.95;;
20283;SDS011;10301;50.832;4.080;2022-08-18T01:34:02;134.60;;;71.35;;
20283;SDS011;10301;50.832;4.080;2022-08-18T01:36:30;137.52;;;68.25;;
20283;SDS011;10301;50.832;4.080;2022-08-18T01:38:57;131.80;;;68.18;;
20283;SDS011;10301;50.832;4.080;2022-08-18T01:41:23;140.43;;;67.40;;
20283;SDS011;10301;50.832;4.080;2022-08-18T01:43:50;119.25;;;62.63;;
20283;SDS011;10301;50.832;4.080;2022-08-18T01:46:17;120.00;;;61.50;;
20283;SDS011;10301;50.832;4.080;2022-08-18T01:48:46;122.65;;;62.83;;
20283;SDS011;10301;50.832;4.080;2022-08-18T01:51:12;115.95;;;59.17;;
20283;SDS011;10301;50.832;4.080;2022-08-18T01:53:39;132.95;;;65.03;;
20283;SDS011;10301;50.832;4.080;2022-08-18T01:56:05;122.97;;;59.15;;
20283;SDS011;10301;50.832;4.080;2022-08-18T01:58:32;126.28;;;60.15;;
20283;SDS011;10301;50.832;4.080;2022-08-18T02:00:59;129.63;;;61.85;;
20283;SDS011;10301;50.832;4.080;2022-08-18T02:03:32;120.95;;;55.95;;
20283;SDS011;10301;50.832;4.080;2022-08-18T02:06:02;145.48;;;64.28;;
20283;SDS011;10301;50.832;4.080;2022-08-18T02:08:29;142.85;;;58.50;;
20283;SDS011;10301;50.832;4.080;2022-08-18T02:10:55;133.63;;;60.08;;
20283;SDS011;10301;50.832;4.080;2022-08-18T02:13:22;135.13;;;58.38;;
20283;SDS011;10301;50.832;4.080;2022-08-18T02:15:49;169.45;;;60.70;;
20283;SDS011;10301;50.832;4.080;2022-08-18T02:18:16;135.90;;;61.00;;
20283;SDS011;10301;50.832;4.080;2022-08-18T02:20:43;141.32;;;64.35;;
20283;SDS011;10301;50.832;4.080;2022-08-18T02:23:10;200.43;;;59.17;;
20283;SDS011;10301;50.832;4.080;2022-08-18T02:25:36;158.73;;;61.92;;
20283;SDS011;10301;50.832;4.080;2022-08-18T02:28:04;142.10;;;61.28;;
20283;SDS011;10301;50.832;4.080;2022-08-18T02:30:30;126.13;;;57.78;;
20283;SDS011;10301;50.832;4.080;2022-08-18T02:32:57;123.65;;;58.25;;
20283;SDS011;10301;50.832;4.080;2022-08-18T02:35:23;134.25;;;61.83;;
20283;SDS011;10301;50.832;4.080;2022-08-18T02:37:49;143.75;;;59.13;;
20283;SDS011;10301;50.832;4.080;2022-08-18T02:40:15;153.60;;;58.97;;
20283;SDS011;10301;50.832;4.080;2022-08-18T02:42:42;146.88;;;62.88;;
20283;SDS011;10301;50.832;4.080;2022-08-18T02:45:08;165.35;;;63.67;;
20283;SDS011;10301;50.832;4.080;2022-08-18T02:47:34;156.40;;;63.85;;
20283;SDS011;10301;50.832;4.080;2022-08-18T02:50:00;159.05;;;64.85;;
20283;SDS011;10301;50.832;4.080;2022-08-18T02:52:26;155.07;;;65.13;;
20283;SDS011;10301;50.832;4.080;2022-08-18T02:54:59;146.88;;;62.83;;
20283;SDS011;10301;50.832;4.080;2022-08-18T02:57:26;161.75;;;71.05;;
20283;SDS011;10301;50.832;4.080;2022-08-18T02:59:52;177.48;;;72.78;;
20283;SDS011;10301;50.832;4.080;2022-08-18T03:02:18;194.38;;;74.50;;
20283;SDS011;10301;50.832;4.080;2022-08-18T03:04:44;178.10;;;72.60;;
20283;SDS011;10301;50.832;4.080;2022-08-18T03:07:11;173.20;;;69.47;;
20283;SDS011;10301;50.832;4.080;2022-08-18T03:09:38;161.82;;;68.22;;
20283;SDS011;10301;50.832;4.080;2022-08-18T03:12:05;156.55;;;66.75;;
20283;SDS011;10301;50.832;4.080;2022-08-18T03:14:31;154.50;;;64.85;;
20283;SDS011;10301;50.832;4.080;2022-08-18T03:16:57;184.68;;;66.70;;
20283;SDS011;10301;50.832;4.080;2022-08-18T03:19:27;161.20;;;67.18;;
20283;SDS011;10301;50.832;4.080;2022-08-18T03:21:53;208.57;;;81.60;;
20283;SDS011;10301;50.832;4.080;2022-08-18T03:24:23;189.13;;;68.85;;
20283;SDS011;10301;50.832;4.080;2022-08-18T03:26:50;159.13;;;65.40;;
20283;SDS011;10301;50.832;4.080;2022-08-18T03:29:17;156.73;;;66.05;;
20283;SDS011;10301;50.832;4.080;2022-08-18T03:31:43;196.77;;;65.13;;
20283;SDS011;10301;50.832;4.080;2022-08-18T03:34:09;190.63;;;69.95;;
20283;SDS011;10301;50.832;4.080;2022-08-18T03:36:35;170.38;;;70.55;;
20283;SDS011;10301;50.832;4.080;2022-08-18T03:39:06;187.10;;;71.65;;
20283;SDS011;10301;50.832;4.080;2022-08-18T03:41:33;169.48;;;70.28;;
20283;SDS011;10301;50.832;4.080;2022-08-18T03:44:00;203.05;;;71.03;;
20283;SDS011;10301;50.832;4.080;2022-08-18T03:46:28;200.85;;;69.43;;
20283;SDS011;10301;50.832;4.080;2022-08-18T03:48:55;236.85;;;71.22;;
20283;SDS011;10301;50.832;4.080;2022-08-18T03:51:23;200.85;;;71.20;;
20283;SDS011;10301;50.832;4.080;2022-08-18T03:53:56;244.38;;;71.20;;
20283;SDS011;10301;50.832;4.080;2022-08-18T03:56:25;253.80;;;75.00;;
20283;SDS011;10301;50.832;4.080;2022-08-18T03:58:54;255.35;;;74.38;;
20283;SDS011;10301;50.832;4.080;2022-08-18T04:01:23;222.95;;;76.35;;
20283;SDS011;10301;50.832;4.080;2022-08-18T04:03:52;217.48;;;77.25;;
20283;SDS011;10301;50.832;4.080;2022-08-18T04:06:23;231.55;;;76.28;;
20283;SDS011;10301;50.832;4.080;2022-08-18T04:08:51;245.18;;;76.47;;
20283;SDS011;10301;50.832;4.080;2022-08-18T04:11:21;261.88;;;71.60;;
20283;SDS011;10301;50.832;4.080;2022-08-18T04:13:47;212.45;;;74.60;;
20283;SDS011;10301;50.832;4.080;2022-08-18T04:16:14;253.85;;;74.57;;
20283;SDS011;10301;50.832;4.080;2022-08-18T04:18:40;223.55;;;78.00;;
20283;SDS011;10301;50.832;4.080;2022-08-18T04:21:07;217.77;;;74.32;;
20283;SDS011;10301;50.832;4.080;2022-08-18T04:23:34;237.77;;;78.00;;
20283;SDS011;10301;50.832;4.080;2022-08-18T04:26:04;211.00;;;78.53;;
20283;SDS011;10301;50.832;4.080;2022-08-18T04:28:31;230.43;;;78.13;;
20283;SDS011;10301;50.832;4.080;2022-08-18T04:30:57;218.07;;;79.05;;
20283;SDS011;10301;50.832;4.080;2022-08-18T04:33:26;220.38;;;76.53;;
20283;SDS011;10301;50.832;4.080;2022-08-18T04:35:53;230.05;;;76.60;;
20283;SDS011;10301;50.832;4.080;2022-08-18T04:38:19;215.40;;;78.05;;
20283;SDS011;10301;50.832;4.080;2022-08-18T04:40:46;220.43;;;78.85;;
20283;SDS011;10301;50.832;4.080;2022-08-18T04:43:12;215.65;;;79.35;;
20283;SDS011;10301;50.832;4.080;2022-08-18T04:45:45;219.75;;;78.88;;
20283;SDS011;10301;50.832;4.080;2022-08-18T04:48:11;204.05;;;74.50;;
20283;SDS011;10301;50.832;4.080;2022-08-18T04:50:40;214.65;;;78.68;;
20283;SDS011;10301;50.832;4.080;2022-08-18T04:53:06;214.93;;;78.07;;
20283;SDS011;10301;50.832;4.080;2022-08-18T04:55:52;182.55;;;72.30;;
20283;SDS011;10301;50.832;4.080;2022-08-18T04:58:19;188.68;;;77.38;;
20283;SDS011;10301;50.832;4.080;2022-08-18T05:00:54;182.15;;;72.00;;
20283;SDS011;10301;50.832;4.080;2022-08-18T05:03:24;179.48;;;71.78;;
20283;SDS011;10301;50.832;4.080;2022-08-18T05:05:54;198.00;;;74.28;;
20283;SDS011;10301;50.832;4.080;2022-08-18T05:08:22;177.40;;;71.72;;
20283;SDS011;10301;50.832;4.080;2022-08-18T05:10:53;200.38;;;72.65;;
20283;SDS011;10301;50.832;4.080;2022-08-18T05:13:21;190.73;;;68.70;;
20283;SDS011;10301;50.832;4.080;2022-08-18T05:15:57;213.13;;;73.80;;
20283;SDS011;10301;50.832;4.080;2022-08-18T05:18:28;226.48;;;71.50;;
20283;SDS011;10301;50.832;4.080;2022-08-18T05:20:55;210.40;;;73.78;;
20283;SDS011;10301;50.832;4.080;2022-08-18T05:23:21;206.68;;;74.40;;
20283;SDS011;10301;50.832;4.080;2022-08-18T05:25:48;213.40;;;70.63;;
20283;SDS011;10301;50.832;4.080;2022-08-18T05:28:14;223.10;;;72.10;;
20283;SDS011;10301;50.832;4.080;2022-08-18T05:30:40;209.65;;;71.53;;
20283;SDS011;10301;50.832;4.080;2022-08-18T05:33:06;207.80;;;72.50;;
20283;SDS011;10301;50.832;4.080;2022-08-18T05:35:37;201.50;;;72.57;;
20283;SDS011;10301;50.832;4.080;2022-08-18T05:41:13;202.57;;;71.35;;
20283;SDS011;10301;50.832;4.080;2022-08-18T05:43:45;196.80;;;70.00;;
20283;SDS011;10301;50.832;4.080;2022-08-18T05:46:12;198.60;;;72.53;;
20283;SDS011;10301;50.832;4.080;2022-08-18T05:48:38;202.07;;;74.47;;
20283;SDS011;10301;50.832;4.080;2022-08-18T05:51:15;189.95;;;73.63;;
20283;SDS011;10301;50.832;4.080;2022-08-18T05:53:49;196.80;;;71.32;;
20283;SDS011;10301;50.832;4.080;2022-08-18T05:56:34;192.70;;;71.53;;
20283;SDS011;10301;50.832;4.080;2022-08-18T05:59:21;193.23;;;71.13;;
20283;SDS011;10301;50.832;4.080;2022-08-18T06:01:55;181.20;;;68.28;;
20283;SDS011;10301;50.832;4.080;2022-08-18T06:07:15;163.63;;;66.07;;
20283;SDS011;10301;50.832;4.080;2022-08-18T06:09:46;162.38;;;66.05;;
20283;SDS011;10301;50.832;4.080;2022-08-18T06:14:46;157.30;;;64.40;;
20283;SDS011;10301;50.832;4.080;2022-08-18T06:22:29;156.35;;;63.92;;
20283;SDS011;10301;50.832;4.080;2022-08-18T06:25:24;154.63;;;62.55;;
20283;SDS011;10301;50.832;4.080;2022-08-18T06:28:14;147.50;;;65.95;;
20283;SDS011;10301;50.832;4.080;2022-08-18T06:30:45;140.15;;;66.47;;
20283;SDS011;10301;50.832;4.080;2022-08-18T06:36:47;139.70;;;64.47;;
20283;SDS011;10301;50.832;4.080;2022-08-18T06:39:13;134.73;;;63.08;;
20283;SDS011;10301;50.832;4.080;2022-08-18T06:41:50;133.63;;;62.85;;
20283;SDS011;10301;50.832;4.080;2022-08-18T06:44:35;124.00;;;62.15;;
20283;SDS011;10301;50.832;4.080;2022-08-18T06:47:20;121.40;;;61.97;;
20283;SDS011;10301;50.832;4.080;2022-08-18T06:49:58;117.95;;;61.70;;
20283;SDS011;10301;50.832;4.080;2022-08-18T06:52:51;120.10;;;60.80;;
20283;SDS011;10301;50.832;4.080;2022-08-18T06:55:17;119.50;;;62.90;;
20283;SDS011;10301;50.832;4.080;2022-08-18T06:58:03;116.72;;;61.30;;
20283;SDS011;10301;50.832;4.080;2022-08-18T07:00:53;114.38;;;58.78;;
20283;SDS011;10301;50.832;4.080;2022-08-18T07:03:23;112.43;;;60.08;;
20283;SDS011;10301;50.832;4.080;2022-08-18T07:08:49;99.70;;;56.13;;
20283;SDS011;10301;50.832;4.080;2022-08-18T07:13:43;100.47;;;58.78;;
20283;SDS011;10301;50.832;4.080;2022-08-18T07:16:14;98.55;;;57.63;;
20283;SDS011;10301;50.832;4.080;2022-08-18T07:18:48;96.57;;;56.47;;
20283;SDS011;10301;50.832;4.080;2022-08-18T07:21:31;91.72;;;56.10;;
20283;SDS011;10301;50.832;4.080;2022-08-18T07:23:59;93.80;;;53.08;;
20283;SDS011;10301;50.832;4.080;2022-08-18T07:26:29;82.28;;;50.83;;
20283;SDS011;10301;50.832;4.080;2022-08-18T07:28:54;84.60;;;52.22;;
20283;SDS011;10301;50.832;4.080;2022-08-18T07:31:39;83.93;;;52.03;;
20283;SDS011;10301;50.832;4.080;2022-08-18T07:34:14;79.63;;;50.50;;
20283;SDS011;10301;50.832;4.080;2022-08-18T07:37:00;84.72;;;52.08;;
20283;SDS011;10301;50.832;4.080;2022-08-18T07:45:18;75.93;;;48.53;;
20283;SDS011;10301;50.832;4.080;2022-08-18T08:01:47;69.43;;;45.00;;
20283;SDS011;10301;50.832;4.080;2022-08-18T08:07:04;63.40;;;43.10;;
20283;SDS011;10301;50.832;4.080;2022-08-18T08:12:26;54.05;;;38.05;;
20283;SDS011;10301;50.832;4.080;2022-08-18T08:23:17;45.03;;;32.28;;
20283;SDS011;10301;50.832;4.080;2022-08-18T08:29:02;40.85;;;32.67;;
20283;SDS011;10301;50.832;4.080;2022-08-18T08:34:15;34.60;;;26.90;;
20283;SDS011;10301;50.832;4.080;2022-08-18T08:37:01;36.45;;;26.23;;
20283;SDS011;10301;50.832;4.080;2022-08-18T08:39:45;37.33;;;29.30;;
20283;SDS011;10301;50.832;4.080;2022-08-18T08:45:07;37.30;;;28.90;;
20283;SDS011;10301;50.832;4.080;2022-08-18T08:48:25;37.08;;;29.20;;
20283;SDS011;10301;50.832;4.080;2022-08-18T08:51:23;34.75;;;26.67;;
20283;SDS011;10301;50.832;4.080;2022-08-18T08:53:28;34.60;;;25.98;;
20283;SDS011;10301;50.832;4.080;2022-08-18T08:56:01;38.65;;;27.42;;
20283;SDS011;10301;50.832;4.080;2022-08-18T09:01:44;34.75;;;28.35;;
20283;SDS011;10301;50.832;4.080;2022-08-18T09:06:59;31.83;;;24.35;;
20283;SDS011;10301;50.832;4.080;2022-08-18T09:09:56;31.17;;;26.00;;
20283;SDS011;10301;50.832;4.080;2022-08-18T09:23:42;34.08;;;29.13;;
20283;SDS011;10301;50.832;4.080;2022-08-18T09:34:53;32.75;;;26.55;;
20283;SDS011;10301;50.832;4.080;2022-08-18T09:37:53;30.08;;;26.77;;
20283;SDS011;10301;50.832;4.080;2022-08-18T09:41:15;29.42;;;26.33;;
20283;SDS011;10301;50.832;4.080;2022-08-18T09:43:56;29.95;;;26.80;;
20283;SDS011;10301;50.832;4.080;2022-08-18T10:03:00;29.15;;;25.73;;
20283;SDS011;10301;50.832;4.080;2022-08-18T10:07:40;25.58;;;22.98;;
20283;SDS011;10301;50.832;4.080;2022-08-18T10:13:21;25.60;;;23.20;;
20283;SDS011;10301;50.832;4.080;2022-08-18T10:24:22;21.88;;;19.77;;
20283;SDS011;10301;50.832;4.080;2022-08-18T10:37:12;31.45;;;28.13;;
20283;SDS011;10301;50.832;4.080;2022-08-18T10:43:18;28.48;;;25.70;;
20283;SDS011;10301;50.832;4.080;2022-08-18T10:45:27;29.52;;;26.75;;
20283;SDS011;10301;50.832;4.080;2022-08-18T10:48:11;27.17;;;24.58;;
20283;SDS011;10301;50.832;4.080;2022-08-18T10:50:48;22.08;;;19.55;;
20283;SDS011;10301;50.832;4.080;2022-08-18T10:59:13;21.60;;;19.42;;
20283;SDS011;10301;50.832;4.080;2022-08-18T11:04:43;25.17;;;22.55;;
20283;SDS011;10301;50.832;4.080;2022-08-18T11:09:40;21.70;;;19.20;;
20283;SDS011;10301;50.832;4.080;2022-08-18T11:12:07;19.23;;;16.85;;
20283;SDS011;10301;50.832;4.080;2022-08-18T11:14:47;18.35;;;16.30;;
20283;SDS011;10301;50.832;4.080;2022-08-18T11:17:21;16.88;;;15.10;;
20283;SDS011;10301;50.832;4.080;2022-08-18T11:19:59;15.52;;;14.02;;
20283;SDS011;10301;50.832;4.080;2022-08-18T11:22:30;14.32;;;12.93;;
20283;SDS011;10301;50.832;4.080;2022-08-18T11:24:57;17.88;;;16.00;;
20283;SDS011;10301;50.832;4.080;2022-08-18T11:27:26;17.98;;;15.40;;
20283;SDS011;10301;50.832;4.080;2022-08-18T11:29:53;15.60;;;13.48;;
20283;SDS011;10301;50.832;4.080;2022-08-18T11:32:27;15.98;;;13.63;;
20283;SDS011;10301;50.832;4.080;2022-08-18T11:37:28;20.77;;;17.60;;
20283;SDS011;10301;50.832;4.080;2022-08-18T11:40:35;23.92;;;21.17;;
20283;SDS011;10301;50.832;4.080;2022-08-18T11:43:06;25.00;;;22.35;;
20283;SDS011;10301;50.832;4.080;2022-08-18T11:50:45;20.88;;;17.80;;
20283;SDS011;10301;50.832;4.080;2022-08-18T11:53:25;21.63;;;18.45;;
20283;SDS011;10301;50.832;4.080;2022-08-18T11:56:04;17.77;;;15.60;;
20283;SDS011;10301;50.832;4.080;2022-08-18T11:58:37;18.15;;;16.27;;
20283;SDS011;10301;50.832;4.080;2022-08-18T12:01:27;23.35;;;20.85;;
20283;SDS011;10301;50.832;4.080;2022-08-18T12:12:06;25.00;;;22.35;;
20283;SDS011;10301;50.832;4.080;2022-08-18T12:14:57;26.05;;;23.45;;
20283;SDS011;10301;50.832;4.080;2022-08-18T12:17:29;23.95;;;21.27;;
20283;SDS011;10301;50.832;4.080;2022-08-18T12:19:56;22.42;;;20.08;;
20283;SDS011;10301;50.832;4.080;2022-08-18T12:22:31;23.42;;;20.85;;
20283;SDS011;10301;50.832;4.080;2022-08-18T12:24:58;23.67;;;21.13;;
20283;SDS011;10301;50.832;4.080;2022-08-18T12:27:25;22.48;;;20.08;;
20283;SDS011;10301;50.832;4.080;2022-08-18T12:29:54;22.15;;;19.75;;
20283;SDS011;10301;50.832;4.080;2022-08-18T12:32:21;23.48;;;20.92;;
20283;SDS011;10301;50.832;4.080;2022-08-18T12:34:48;22.85;;;19.63;;
20283;SDS011;10301;50.832;4.080;2022-08-18T12:37:16;21.90;;;19.35;;
20283;SDS011;10301;50.832;4.080;2022-08-18T12:39:44;22.65;;;19.05;;
20283;SDS011;10301;50.832;4.080;2022-08-18T12:42:10;21.35;;;17.67;;
20283;SDS011;10301;50.832;4.080;2022-08-18T12:44:36;19.38;;;17.13;;
20283;SDS011;10301;50.832;4.080;2022-08-18T12:47:03;16.92;;;14.90;;
20283;SDS011;10301;50.832;4.080;2022-08-18T12:49:36;15.05;;;13.35;;
20283;SDS011;10301;50.832;4.080;2022-08-18T12:52:02;14.75;;;11.50;;
20283;SDS011;10301;50.832;4.080;2022-08-18T12:54:28;15.30;;;13.02;;
20283;SDS011;10301;50.832;4.080;2022-08-18T12:56:56;14.23;;;12.75;;
20283;SDS011;10301;50.832;4.080;2022-08-18T12:59:22;15.13;;;13.63;;
20283;SDS011;10301;50.832;4.080;2022-08-18T13:01:48;14.48;;;12.93;;
20283;SDS011;10301;50.832;4.080;2022-08-18T13:04:14;16.50;;;13.73;;
20283;SDS011;10301;50.832;4.080;2022-08-18T13:06:47;13.32;;;11.90;;
20283;SDS011;10301;50.832;4.080;2022-08-18T13:09:17;14.85;;;12.05;;
20283;SDS011;10301;50.832;4.080;2022-08-18T13:11:43;14.85;;;11.88;;
20283;SDS011;10301;50.832;4.080;2022-08-18T13:14:08;17.08;;;13.35;;
20283;SDS011;10301;50.832;4.080;2022-08-18T13:16:35;14.05;;;11.77;;
20283;SDS011;10301;50.832;4.080;2022-08-18T13:19:03;14.68;;;12.48;;
20283;SDS011;10301;50.832;4.080;2022-08-18T13:21:29;18.00;;;15.07;;
20283;SDS011;10301;50.832;4.080;2022-08-18T13:23:55;16.25;;;14.65;;
20283;SDS011;10301;50.832;4.080;2022-08-18T13:26:24;17.98;;;16.17;;
20283;SDS011;10301;50.832;4.080;2022-08-18T13:28:55;18.38;;;16.58;;
20283;SDS011;10301;50.832;4.080;2022-08-18T13:31:22;19.50;;;17.63;;
20283;SDS011;10301;50.832;4.080;2022-08-18T13:33:48;17.75;;;15.93;;
20283;SDS011;10301;50.832;4.080;2022-08-18T13:36:15;17.77;;;15.88;;
20283;SDS011;10301;50.832;4.080;2022-08-18T13:38:40;18.67;;;16.83;;
20283;SDS011;10301;50.832;4.080;2022-08-18T13:41:07;18.67;;;16.77;;
20283;SDS011;10301;50.832;4.080;2022-08-18T13:43:36;21.83;;;19.55;;
20283;SDS011;10301;50.832;4.080;2022-08-18T13:46:06;20.17;;;17.95;;
20283;SDS011;10301;50.832;4.080;2022-08-18T13:48:33;20.80;;;17.85;;
20283;SDS011;10301;50.832;4.080;2022-08-18T13:50:59;19.50;;;17.42;;
20283;SDS011;10301;50.832;4.080;2022-08-18T13:53:27;21.98;;;18.55;;
20283;SDS011;10301;50.832;4.080;2022-08-18T13:55:54;19.45;;;17.65;;
20283;SDS011;10301;50.832;4.080;2022-08-18T13:58:23;17.65;;;15.48;;
20283;SDS011;10301;50.832;4.080;2022-08-18T14:00:49;17.75;;;15.85;;
20283;SDS011;10301;50.832;4.080;2022-08-18T14:03:18;15.82;;;14.23;;
20283;SDS011;10301;50.832;4.080;2022-08-18T14:05:47;13.98;;;12.50;;
20283;SDS011;10301;50.832;4.080;2022-08-18T14:08:13;14.93;;;13.43;;
20283;SDS011;10301;50.832;4.080;2022-08-18T14:10:39;13.68;;;12.27;;
20283;SDS011;10301;50.832;4.080;2022-08-18T14:13:05;13.98;;;12.10;;
20283;SDS011;10301;50.832;4.080;2022-08-18T14:15:32;12.98;;;11.48;;
20283;SDS011;10301;50.832;4.080;2022-08-18T14:18:02;13.75;;;12.35;;
20283;SDS011;10301;50.832;4.080;2022-08-18T14:20:28;14.30;;;12.80;;
20283;SDS011;10301;50.832;4.080;2022-08-18T14:23:17;14.63;;;13.15;;
20283;SDS011;10301;50.832;4.080;2022-08-18T14:26:01;18.13;;;16.27;;
20283;SDS011;10301;50.832;4.080;2022-08-18T14:28:45;16.13;;;14.43;;
20283;SDS011;10301;50.832;4.080;2022-08-18T14:31:11;16.83;;;15.13;;
20283;SDS011;10301;50.832;4.080;2022-08-18T14:33:37;18.42;;;16.23;;
20283;SDS011;10301;50.832;4.080;2022-08-18T14:36:05;18.92;;;16.77;;
20283;SDS011;10301;50.832;4.080;2022-08-18T14:38:31;17.17;;;15.35;;
20283;SDS011;10301;50.832;4.080;2022-08-18T14:40:57;18.42;;;16.40;;
20283;SDS011;10301;50.832;4.080;2022-08-18T14:43:26;18.90;;;16.90;;
20283;SDS011;10301;50.832;4.080;2022-08-18T14:45:52;17.27;;;15.57;;
20283;SDS011;10301;50.832;4.080;2022-08-18T14:48:19;18.58;;;16.58;;
20283;SDS011;10301;50.832;4.080;2022-08-18T14:50:48;20.48;;;18.17;;
20283;SDS011;10301;50.832;4.080;2022-08-18T14:53:17;18.10;;;16.30;;
20283;SDS011;10301;50.832;4.080;2022-08-18T14:55:44;20.73;;;18.67;;
20283;SDS011;10301;50.832;4.080;2022-08-18T14:58:11;19.33;;;17.15;;
20283;SDS011;10301;50.832;4.080;2022-08-18T15:00:37;19.35;;;17.08;;
20283;SDS011;10301;50.832;4.080;2022-08-18T15:03:03;19.15;;;17.23;;
20283;SDS011;10301;50.832;4.080;2022-08-18T15:05:31;19.40;;;17.50;;
20283;SDS011;10301;50.832;4.080;2022-08-18T15:07:58;18.80;;;16.88;;
20283;SDS011;10301;50.832;4.080;2022-08-18T15:10:24;18.15;;;15.02;;
20283;SDS011;10301;50.832;4.080;2022-08-18T15:12:50;19.10;;;15.75;;
20283;SDS011;10301;50.832;4.080;2022-08-18T15:15:16;18.70;;;14.80;;
20283;SDS011;10301;50.832;4.080;2022-08-18T15:17:42;16.98;;;14.68;;
20283;SDS011;10301;50.832;4.080;2022-08-18T15:20:09;18.05;;;13.48;;
20283;SDS011;10301;50.832;4.080;2022-08-18T15:22:42;15.05;;;13.45;;
20283;SDS011;10301;50.832;4.080;2022-08-18T15:25:28;15.80;;;12.60;;
20283;SDS011;10301;50.832;4.080;2022-08-18T15:28:09;11.90;;;10.38;;
20283;SDS011;10301;50.832;4.080;2022-08-18T15:30:35;16.20;;;11.27;;
20283;SDS011;10301;50.832;4.080;2022-08-18T15:33:01;12.70;;;10.70;;
20283;SDS011;10301;50.832;4.080;2022-08-18T15:35:28;13.77;;;11.30;;
20283;SDS011;10301;50.832;4.080;2022-08-18T15:37:54;13.48;;;11.15;;
20283;SDS011;10301;50.832;4.080;2022-08-18T15:40:21;14.75;;;11.85;;
20283;SDS011;10301;50.832;4.080;2022-08-18T15:42:51;16.00;;;10.50;;
20283;SDS011;10301;50.832;4.080;2022-08-18T15:45:31;12.38;;;9.57;;
20283;SDS011;10301;50.832;4.080;2022-08-18T15:48:02;11.30;;;9.20;;
20283;SDS011;10301;50.832;4.080;2022-08-18T15:50:28;10.40;;;9.25;;
20283;SDS011;10301;50.832;4.080;2022-08-18T15:52:58;15.25;;;10.40;;
20283;SDS011;10301;50.832;4.080;2022-08-18T15:55:28;12.45;;;8.98;;
20283;SDS011;10301;50.832;4.080;2022-08-18T15:57:55;11.13;;;9.02;;
20283;SDS011;10301;50.832;4.080;2022-08-18T16:00:21;10.95;;;7.57;;
20283;SDS011;10301;50.832;4.080;2022-08-18T16:02:50;11.98;;;8.10;;
20283;SDS011;10301;50.832;4.080;2022-08-18T16:05:25;10.10;;;7.43;;
20283;SDS011;10301;50.832;4.080;2022-08-18T16:07:54;12.90;;;7.30;;
20283;SDS011;10301;50.832;4.080;2022-08-18T16:10:22;9.45;;;7.38;;
20283;SDS011;10301;50.832;4.080;2022-08-18T16:12:49;9.63;;;6.57;;
20283;SDS011;10301;50.832;4.080;2022-08-18T16:15:16;10.30;;;6.85;;
20283;SDS011;10301;50.832;4.080;2022-08-18T16:17:43;10.10;;;6.75;;
20283;SDS011;10301;50.832;4.080;2022-08-18T16:20:10;8.02;;;6.78;;
20283;SDS011;10301;50.832;4.080;2022-08-18T16:22:37;9.13;;;6.97;;
20283;SDS011;10301;50.832;4.080;2022-08-18T16:25:04;8.85;;;6.78;;
20283;SDS011;10301;50.832;4.080;2022-08-18T16:27:32;10.93;;;7.22;;
20283;SDS011;10301;50.832;4.080;2022-08-18T16:29:59;8.02;;;6.10;;
20283;SDS011;10301;50.832;4.080;2022-08-18T16:32:25;9.35;;;6.80;;
20283;SDS011;10301;50.832;4.080;2022-08-18T16:34:52;9.70;;;6.60;;
20283;SDS011;10301;50.832;4.080;2022-08-18T16:37:17;9.75;;;7.13;;
20283;SDS011;10301;50.832;4.080;2022-08-18T16:39:43;10.02;;;6.53;;
20283;SDS011;10301;50.832;4.080;2022-08-18T16:42:09;8.43;;;6.25;;
20283;SDS011;10301;50.832;4.080;2022-08-18T16:44:36;11.15;;;8.48;;
20283;SDS011;10301;50.832;4.080;2022-08-18T16:47:05;9.07;;;7.28;;
20283;SDS011;10301;50.832;4.080;2022-08-18T16:49:31;8.32;;;6.65;;
20283;SDS011;10301;50.832;4.080;2022-08-18T16:52:00;10.93;;;6.43;;
20283;SDS011;10301;50.832;4.080;2022-08-18T16:54:29;10.93;;;6.78;;
20283;SDS011;10301;50.832;4.080;2022-08-18T16:56:56;9.73;;;7.32;;
20283;SDS011;10301;50.832;4.080;2022-08-18T16:59:22;9.63;;;6.93;;
20283;SDS011;10301;50.832;4.080;2022-08-18T17:02:06;12.55;;;7.20;;
20283;SDS011;10301;50.832;4.080;2022-08-18T17:04:50;10.35;;;8.60;;
20283;SDS011;10301;50.832;4.080;2022-08-18T17:07:16;12.43;;;8.05;;
20283;SDS011;10301;50.832;4.080;2022-08-18T17:09:42;9.55;;;7.13;;
20283;SDS011;10301;50.832;4.080;2022-08-18T17:12:08;13.07;;;7.63;;
20283;SDS011;10301;50.832;4.080;2022-08-18T17:14:33;8.63;;;7.40;;
20283;SDS011;10301;50.832;4.080;2022-08-18T17:17:00;10.35;;;7.40;;
20283;SDS011;10301;50.832;4.080;2022-08-18T17:19:28;10.95;;;7.20;;
20283;SDS011;10301;50.832;4.080;2022-08-18T17:21:57;8.55;;;6.70;;